Time;durP1;ratioP1;P1;durP2;ratioP2;P2;SDS_P1;SDS_P2;PMS_P1;PMS_P2;Temp;Humidity;BMP_temperature;BMP_pressure;BME280_temperature;BME280_humidity;BME280_pressure;Samples;Min_cycle;Max_cycle;Signal;HPM_P1;HPM_P2
2022/11/14 00:02:16;;;;;;;6.35;3.70;;;14.50;99.90;;;;;;5076732;28;20036;-81
2022/11/14 00:04:46;;;;;;;5.30;2.22;;;14.40;99.90;;;;;;5076532;28;20121;-80
2022/11/14 00:07:12;;;;;;;5.78;3.38;;;14.50;99.90;;;;;;5094629;28;20024;-81
2022/11/14 00:09:39;;;;;;;6.68;3.60;;;14.40;99.90;;;;;;5094546;28;20437;-80
2022/11/14 00:12:05;;;;;;;10.90;3.55;;;14.40;99.90;;;;;;5094580;28;20032;-82
2022/11/14 00:14:30;;;;;;;6.72;3.67;;;14.40;99.90;;;;;;5094334;28;20028;-81
2022/11/14 00:16:56;;;;;;;6.53;3.38;;;14.40;99.90;;;;;;5097714;28;20024;-81
2022/11/14 00:19:22;;;;;;;4.03;2.85;;;14.40;99.90;;;;;;5114840;28;20034;-81
2022/11/14 00:21:47;;;;;;;4.70;2.67;;;14.40;99.90;;;;;;5114794;28;20027;-80
2022/11/14 00:24:13;;;;;;;9.52;3.58;;;14.40;99.90;;;;;;5114568;28;20059;-80
2022/11/14 00:26:38;;;;;;;3.92;2.55;;;14.50;99.90;;;;;;5114582;28;20063;-80
2022/11/14 00:29:04;;;;;;;7.13;3.80;;;14.40;99.90;;;;;;5114859;28;20698;-80
2022/11/14 00:31:30;;;;;;;5.05;3.38;;;14.40;99.90;;;;;;5114676;28;20023;-81
2022/11/14 00:33:56;;;;;;;6.35;3.10;;;14.40;99.90;;;;;;5094278;28;20024;-81
2022/11/14 00:36:21;;;;;;;4.68;3.10;;;14.40;99.90;;;;;;5093848;28;20056;-81
2022/11/14 00:38:50;;;;;;;4.45;2.70;;;14.40;99.90;;;;;;5075880;28;20118;-81
2022/11/14 00:41:16;;;;;;;7.72;3.80;;;14.40;99.90;;;;;;5093945;28;20089;-80
2022/11/14 00:43:42;;;;;;;6.72;3.25;;;14.50;99.90;;;;;;5093910;28;20479;-81
2022/11/14 00:46:07;;;;;;;6.18;2.80;;;14.50;99.90;;;;;;5094034;28;20032;-80
2022/11/14 00:48:33;;;;;;;4.53;2.90;;;14.40;99.90;;;;;;5093753;28;20499;-80
2022/11/14 00:50:58;;;;;;;4.78;3.13;;;14.50;99.90;;;;;;5093955;28;20050;-81
2022/11/14 00:53:24;;;;;;;5.00;3.13;;;14.60;99.90;;;;;;5093470;28;20020;-79
2022/11/14 00:55:49;;;;;;;4.30;3.13;;;14.40;99.90;;;;;;5093686;28;20024;-81
2022/11/14 00:58:15;;;;;;;5.25;2.88;;;14.40;99.90;;;;;;5075723;28;20027;-80
2022/11/14 01:00:41;;;;;;;3.42;2.60;;;14.30;99.90;;;;;;5093998;28;20028;-81
2022/11/14 01:03:06;;;;;;;5.43;2.38;;;14.30;99.90;;;;;;5093587;28;20028;-80
2022/11/14 01:05:32;;;;;;;6.00;3.10;;;14.60;99.90;;;;;;5093484;28;20020;-80
2022/11/14 01:07:57;;;;;;;4.63;3.08;;;14.30;99.90;;;;;;5093213;28;20085;-81
2022/11/14 01:10:23;;;;;;;4.63;3.10;;;14.30;99.90;;;;;;5093575;28;20028;-81
2022/11/14 01:12:49;;;;;;;3.17;1.90;;;14.30;99.90;;;;;;5093412;28;20030;-81
2022/11/14 01:15:15;;;;;;;3.42;2.17;;;14.20;99.90;;;;;;5093382;28;20028;-81
2022/11/14 01:17:40;;;;;;;4.85;2.50;;;14.20;99.90;;;;;;5074688;28;20028;-81
2022/11/14 01:20:06;;;;;;;4.13;3.53;;;14.30;99.90;;;;;;5093675;28;20024;-81
2022/11/14 01:22:32;;;;;;;3.35;1.90;;;14.30;99.90;;;;;;5093000;28;20112;-81
2022/11/14 01:24:58;;;;;;;2.17;1.80;;;14.30;99.90;;;;;;5093296;28;20099;-80
2022/11/14 01:27:24;;;;;;;4.30;2.65;;;14.30;99.90;;;;;;5093430;28;20028;-81
2022/11/14 01:29:50;;;;;;;4.53;2.40;;;14.30;99.90;;;;;;5092509;28;20031;-81
2022/11/14 01:32:15;;;;;;;3.92;2.55;;;14.20;99.90;;;;;;5092699;28;20388;-80
2022/11/14 01:34:41;;;;;;;6.28;3.50;;;14.20;99.90;;;;;;5092755;28;20139;-80
2022/11/14 01:37:07;;;;;;;5.30;2.53;;;14.20;99.90;;;;;;5092545;28;20032;-80
2022/11/14 01:39:32;;;;;;;6.25;3.13;;;14.20;99.90;;;;;;5093015;28;20020;-80
2022/11/14 01:41:58;;;;;;;5.97;3.65;;;14.20;99.90;;;;;;5092891;28;20032;-81
2022/11/14 01:44:51;;;;;;;5.53;3.15;;;14.20;99.90;;;;;;5092754;28;20103;-80
2022/11/14 01:47:25;;;;;;;3.80;2.25;;;14.20;99.90;;;;;;5092747;28;20464;-81
2022/11/14 01:49:54;;;;;;;7.05;3.90;;;14.20;99.90;;;;;;5093045;28;20043;-80
2022/11/14 01:52:27;;;;;;;4.05;3.05;;;14.50;99.90;;;;;;5091359;28;20435;-81
2022/11/14 01:54:56;;;;;;;5.43;2.35;;;14.20;99.90;;;;;;5092617;28;20027;-81
2022/11/14 01:57:27;;;;;;;6.00;3.55;;;14.50;99.90;;;;;;5092639;28;20063;-80
2022/11/14 01:59:56;;;;;;;4.95;2.97;;;14.10;99.90;;;;;;5092687;28;20765;-80
2022/11/14 02:02:25;;;;;;;4.18;3.05;;;14.40;99.90;;;;;;5092461;28;20038;-81
2022/11/14 02:05:04;;;;;;;5.22;1.98;;;14.30;99.90;;;;;;5092301;28;20536;-80
2022/11/14 02:07:34;;;;;;;4.78;2.65;;;14.20;99.90;;;;;;5092508;28;20047;-81
2022/11/14 02:10:07;;;;;;;5.53;2.92;;;14.20;99.90;;;;;;5092875;28;20081;-81
2022/11/14 02:12:33;;;;;;;2.63;1.92;;;14.20;99.90;;;;;;5092383;28;20024;-80
2022/11/14 02:15:00;;;;;;;6.03;3.70;;;14.20;99.90;;;;;;5092400;28;20466;-81
2022/11/14 02:17:26;;;;;;;4.15;2.38;;;14.40;99.90;;;;;;5100020;28;20054;-81
2022/11/14 02:20:07;;;;;;;3.97;2.15;;;14.10;99.90;;;;;;5112530;28;20055;-80
2022/11/14 02:22:32;;;;;;;4.00;2.67;;;14.20;99.90;;;;;;5112523;28;20042;-81
2022/11/14 02:24:58;;;;;;;6.72;2.90;;;14.20;99.90;;;;;;5112762;28;20099;-80
2022/11/14 02:27:24;;;;;;;5.95;2.70;;;14.10;99.90;;;;;;5112589;28;20023;-80
2022/11/14 02:29:49;;;;;;;6.05;2.70;;;14.10;99.90;;;;;;5112408;28;20045;-81
2022/11/14 02:32:15;;;;;;;6.43;3.42;;;14.10;99.90;;;;;;5106580;28;20021;-81
2022/11/14 02:34:40;;;;;;;5.03;3.20;;;14.10;99.90;;;;;;5092068;28;20024;-80
2022/11/14 02:37:07;;;;;;;6.07;2.92;;;14.10;99.90;;;;;;5092126;28;20028;-81
2022/11/14 02:39:32;;;;;;;4.28;2.60;;;14.10;99.90;;;;;;5074107;28;20476;-81
2022/11/14 02:41:58;;;;;;;7.38;4.10;;;14.00;99.90;;;;;;5092116;28;20070;-81
2022/11/14 02:44:24;;;;;;;4.00;2.63;;;14.00;99.90;;;;;;5095755;28;20085;-81
2022/11/14 02:46:49;;;;;;;5.43;3.22;;;14.00;99.90;;;;;;5096518;28;20020;-81
2022/11/14 02:49:15;;;;;;;3.40;2.55;;;14.00;99.90;;;;;;5095763;28;20056;-81
2022/11/14 02:51:41;;;;;;;4.72;2.47;;;14.00;99.90;;;;;;5096185;28;20016;-81
2022/11/14 02:54:07;;;;;;;5.68;2.67;;;14.00;99.90;;;;;;5096179;28;20051;-81
2022/11/14 02:56:32;;;;;;;7.00;3.38;;;13.90;99.90;;;;;;5096318;28;20609;-81
2022/11/14 02:58:58;;;;;;;4.68;2.35;;;13.80;99.90;;;;;;5095875;28;20396;-80
2022/11/14 03:01:23;;;;;;;6.45;2.95;;;13.80;99.90;;;;;;5095797;28;20111;-81
2022/11/14 03:03:49;;;;;;;6.07;3.28;;;13.80;99.90;;;;;;5095823;28;20036;-81
2022/11/14 03:06:15;;;;;;;5.70;2.90;;;13.80;99.90;;;;;;5095648;28;20503;-80
2022/11/14 03:08:40;;;;;;;3.67;2.45;;;13.90;99.90;;;;;;5096071;28;20613;-81
2022/11/14 03:11:08;;;;;;;6.28;2.40;;;13.90;99.90;;;;;;5095791;28;20026;-81
2022/11/14 03:13:34;;;;;;;7.75;3.10;;;13.90;99.90;;;;;;5095636;28;20081;-81
2022/11/14 03:16:07;;;;;;;2.47;1.77;;;13.90;99.90;;;;;;5095907;28;20028;-81
2022/11/14 03:18:32;;;;;;;3.78;2.83;;;13.90;99.90;;;;;;5095103;28;20027;-80
2022/11/14 03:21:05;;;;;;;3.33;2.67;;;13.90;99.90;;;;;;5095560;28;20012;-81
2022/11/14 03:23:31;;;;;;;4.30;3.00;;;13.90;99.90;;;;;;5095483;28;20051;-81
2022/11/14 03:26:02;;;;;;;4.57;3.03;;;13.90;99.90;;;;;;5095380;28;20464;-80
2022/11/14 03:28:27;;;;;;;3.00;2.25;;;13.90;99.90;;;;;;5095332;28;20050;-80
2022/11/14 03:30:53;;;;;;;5.47;2.40;;;13.90;99.90;;;;;;5095813;28;20544;-80
2022/11/14 03:33:19;;;;;;;5.03;3.20;;;14.00;99.90;;;;;;5094760;28;20032;-80
2022/11/14 03:35:44;;;;;;;5.68;1.73;;;14.00;99.90;;;;;;5095246;28;20128;-80
2022/11/14 03:38:10;;;;;;;3.63;2.72;;;13.90;99.90;;;;;;5095390;28;20102;-81
2022/11/14 03:40:39;;;;;;;4.93;2.50;;;13.90;99.90;;;;;;5094940;28;20024;-81
2022/11/14 03:43:04;;;;;;;3.88;3.05;;;14.00;99.90;;;;;;5094957;28;20569;-81
2022/11/14 03:45:30;;;;;;;6.72;3.00;;;13.80;99.90;;;;;;5095132;28;20028;-81
2022/11/14 03:47:55;;;;;;;4.30;2.50;;;14.00;99.90;;;;;;5094687;28;20032;-80
2022/11/14 03:50:21;;;;;;;4.93;2.90;;;13.90;99.90;;;;;;5095062;28;20028;-81
2022/11/14 03:52:49;;;;;;;3.40;2.13;;;14.10;99.90;;;;;;5094906;28;20044;-81
2022/11/14 03:55:15;;;;;;;5.43;2.67;;;13.70;99.90;;;;;;5094694;28;20032;-81
2022/11/14 03:57:41;;;;;;;3.50;2.75;;;13.70;99.90;;;;;;5094888;28;20031;-81
2022/11/14 04:00:07;;;;;;;6.25;3.08;;;13.80;99.90;;;;;;5094864;28;20016;-80
2022/11/14 04:02:33;;;;;;;4.75;2.70;;;13.80;99.90;;;;;;5094021;28;20893;-81
2022/11/14 04:04:59;;;;;;;3.03;2.42;;;13.70;99.90;;;;;;5094621;28;20062;-81
2022/11/14 04:07:24;;;;;;;5.40;2.65;;;13.80;99.90;;;;;;5094604;28;20035;-81
2022/11/14 04:09:50;;;;;;;7.70;3.30;;;13.70;99.90;;;;;;5093203;28;20392;-81
2022/11/14 04:12:17;;;;;;;4.50;2.83;;;13.70;99.90;;;;;;5094609;28;20477;-83
2022/11/14 04:14:42;;;;;;;4.88;2.88;;;13.60;99.90;;;;;;5094922;28;20127;-82
2022/11/14 04:17:08;;;;;;;4.25;2.30;;;13.70;99.90;;;;;;5093827;28;20051;-82
2022/11/14 04:19:34;;;;;;;2.60;1.75;;;13.70;99.90;;;;;;5094380;28;20059;-83
2022/11/14 04:22:00;;;;;;;8.10;2.83;;;13.70;99.90;;;;;;5094287;28;20032;-82
2022/11/14 04:24:25;;;;;;;4.30;1.90;;;13.60;99.90;;;;;;5094046;28;20093;-82
2022/11/14 04:26:51;;;;;;;7.53;2.30;;;13.80;99.90;;;;;;5094191;28;20046;-83
2022/11/14 04:29:16;;;;;;;14.65;3.58;;;13.70;99.90;;;;;;5094364;28;20072;-82
2022/11/14 04:31:42;;;;;;;4.72;2.95;;;13.80;99.90;;;;;;5093761;28;20023;-81
2022/11/14 04:34:08;;;;;;;4.93;3.08;;;13.60;99.90;;;;;;5093790;28;20036;-81
2022/11/14 04:36:33;;;;;;;2.83;2.15;;;13.60;99.90;;;;;;5093765;28;20044;-81
2022/11/14 04:38:59;;;;;;;3.50;1.67;;;13.70;99.90;;;;;;5094235;28;20066;-81
2022/11/14 04:41:25;;;;;;;7.70;2.90;;;13.70;99.90;;;;;;5092718;28;20024;-81
2022/11/14 04:43:51;;;;;;;4.35;2.67;;;13.60;99.90;;;;;;5093878;28;20040;-81
2022/11/14 04:46:16;;;;;;;3.05;2.33;;;13.60;99.90;;;;;;5093537;28;20045;-81
2022/11/14 04:48:42;;;;;;;4.18;2.63;;;13.80;99.90;;;;;;5093774;28;20032;-81
2022/11/14 04:51:07;;;;;;;6.40;1.95;;;13.90;99.90;;;;;;5093864;28;20061;-81
2022/11/14 04:53:33;;;;;;;3.17;2.47;;;13.70;99.90;;;;;;5093626;28;20032;-81
2022/11/14 04:55:59;;;;;;;3.47;2.60;;;13.80;99.90;;;;;;5093725;28;20031;-81
2022/11/14 04:58:24;;;;;;;2.53;2.17;;;13.70;99.90;;;;;;5093617;28;20038;-81
2022/11/14 05:00:50;;;;;;;3.72;2.17;;;13.80;99.90;;;;;;5093260;28;20047;-81
2022/11/14 05:03:15;;;;;;;3.67;2.03;;;14.10;99.90;;;;;;5093169;28;20036;-80
2022/11/14 05:05:41;;;;;;;3.75;2.60;;;13.90;99.90;;;;;;5091768;28;20078;-81
2022/11/14 05:08:07;;;;;;;5.78;3.10;;;13.80;99.90;;;;;;5093620;28;20028;-81
2022/11/14 05:10:32;;;;;;;3.72;2.25;;;13.80;99.90;;;;;;5093368;28;20024;-81
2022/11/14 05:12:58;;;;;;;5.10;3.13;;;13.80;99.90;;;;;;5093404;28;20024;-81
2022/11/14 05:15:23;;;;;;;3.08;1.35;;;14.10;99.90;;;;;;5093040;28;20426;-81
2022/11/14 05:17:49;;;;;;;2.90;2.25;;;13.80;99.90;;;;;;5093042;28;20129;-81
2022/11/14 05:20:15;;;;;;;3.83;2.20;;;14.20;99.90;;;;;;5093016;28;20776;-81
2022/11/14 05:22:40;;;;;;;3.15;1.95;;;13.90;99.90;;;;;;5075274;28;20039;-81
2022/11/14 05:25:07;;;;;;;4.35;2.55;;;13.90;99.90;;;;;;5093057;28;20047;-81
2022/11/14 05:27:32;;;;;;;6.03;2.38;;;14.50;99.90;;;;;;5093712;28;20032;-81
2022/11/14 05:29:58;;;;;;;2.95;2.33;;;13.80;99.90;;;;;;5092615;28;20058;-81
2022/11/14 05:32:24;;;;;;;6.00;2.78;;;13.80;99.90;;;;;;5092897;28;20031;-80
2022/11/14 05:34:49;;;;;;;2.75;1.90;;;13.90;99.90;;;;;;5092853;28;20016;-81
2022/11/14 05:37:15;;;;;;;3.65;2.00;;;13.80;99.90;;;;;;5092821;28;20416;-81
2022/11/14 05:39:41;;;;;;;3.10;1.75;;;13.90;99.90;;;;;;5092914;28;20012;-81
2022/11/14 05:42:06;;;;;;;3.75;2.85;;;13.90;99.90;;;;;;5092910;28;20038;-79
2022/11/14 05:44:32;;;;;;;2.15;1.67;;;14.10;99.90;;;;;;5092716;28;20115;-81
2022/11/14 05:46:57;;;;;;;4.35;2.17;;;13.90;99.90;;;;;;5092767;28;20016;-81
2022/11/14 05:49:23;;;;;;;3.75;2.15;;;14.00;99.90;;;;;;5093051;28;20032;-81
2022/11/14 05:51:49;;;;;;;3.35;2.45;;;14.20;99.90;;;;;;5092595;28;20070;-81
2022/11/14 05:54:14;;;;;;;2.63;1.58;;;14.00;99.90;;;;;;5092612;28;20031;-81
2022/11/14 05:56:40;;;;;;;4.18;2.60;;;14.10;99.90;;;;;;5092078;28;20016;-81
2022/11/14 05:59:05;;;;;;;2.08;1.70;;;14.00;99.90;;;;;;5092538;28;20024;-81
2022/11/14 06:01:31;;;;;;;3.47;1.90;;;14.10;99.90;;;;;;5092939;28;20453;-81
2022/11/14 06:03:57;;;;;;;6.03;2.88;;;14.00;99.90;;;;;;5092275;28;20036;-81
2022/11/14 06:06:22;;;;;;;9.57;2.63;;;14.00;99.90;;;;;;5093221;28;20107;-81
2022/11/14 06:08:48;;;;;;;3.85;2.67;;;13.90;99.90;;;;;;5092745;28;20124;-81
2022/11/14 06:11:17;;;;;;;5.20;2.70;;;13.90;99.90;;;;;;5092043;28;20495;-81
2022/11/14 06:13:44;;;;;;;3.92;2.60;;;13.90;99.90;;;;;;5092363;28;20025;-81
2022/11/14 06:16:12;;;;;;;3.67;2.40;;;13.80;99.90;;;;;;5090790;28;20035;-81
2022/11/14 06:18:38;;;;;;;4.20;2.38;;;13.80;99.90;;;;;;5092411;28;20028;-81
2022/11/14 06:21:06;;;;;;;3.03;2.13;;;13.70;99.90;;;;;;5092134;28;20064;-80
2022/11/14 06:23:32;;;;;;;3.92;2.35;;;13.60;99.90;;;;;;5092286;28;20522;-81
2022/11/14 06:26:00;;;;;;;3.05;2.25;;;13.60;99.90;;;;;;5091879;28;20029;-81
2022/11/14 06:28:26;;;;;;;3.78;2.70;;;14.00;99.90;;;;;;5092561;28;20024;-81
2022/11/14 06:30:56;;;;;;;7.03;2.85;;;13.60;99.90;;;;;;5091673;28;20024;-81
2022/11/14 06:33:22;;;;;;;2.85;2.10;;;13.40;99.90;;;;;;5092432;28;20039;-81
2022/11/14 06:35:47;;;;;;;3.55;2.67;;;13.40;99.90;;;;;;5091717;28;20122;-81
2022/11/14 06:38:13;;;;;;;4.90;2.75;;;13.70;99.90;;;;;;5092075;28;20027;-81
2022/11/14 06:40:38;;;;;;;5.90;3.40;;;13.30;99.90;;;;;;5091838;28;20077;-80
2022/11/14 06:43:04;;;;;;;3.53;2.47;;;13.30;99.90;;;;;;5091868;28;20524;-81
2022/11/14 06:45:29;;;;;;;5.13;2.85;;;13.30;99.90;;;;;;5092163;28;20103;-81
2022/11/14 06:47:59;;;;;;;5.85;2.80;;;13.30;99.90;;;;;;5092192;28;20020;-81
2022/11/14 06:50:25;;;;;;;3.05;2.20;;;13.30;99.90;;;;;;5091943;28;20477;-81
2022/11/14 06:52:50;;;;;;;4.75;3.30;;;13.60;99.90;;;;;;5092076;28;20039;-81
2022/11/14 06:55:16;;;;;;;5.50;3.25;;;13.40;99.90;;;;;;5091453;28;20117;-81
2022/11/14 06:57:41;;;;;;;4.10;2.42;;;13.40;99.90;;;;;;5091877;28;20418;-81
2022/11/14 07:00:07;;;;;;;4.43;3.20;;;13.40;99.90;;;;;;5092321;28;20044;-81
2022/11/14 07:02:33;;;;;;;5.72;2.78;;;13.40;99.90;;;;;;5091638;28;20158;-81
2022/11/14 07:04:59;;;;;;;6.32;3.63;;;13.70;99.90;;;;;;5091677;28;20499;-81
2022/11/14 07:07:24;;;;;;;4.05;2.35;;;13.80;99.90;;;;;;5091664;28;20270;-81
2022/11/14 07:09:50;;;;;;;4.05;3.00;;;13.50;99.90;;;;;;5091390;28;20128;-81
2022/11/14 07:12:15;;;;;;;4.03;2.42;;;13.70;99.90;;;;;;5091782;28;20020;-80
2022/11/14 07:14:41;;;;;;;5.63;3.10;;;13.90;99.90;;;;;;5091617;28;20496;-81
2022/11/14 07:17:06;;;;;;;5.40;3.67;;;13.60;99.90;;;;;;5091611;28;20488;-81
2022/11/14 07:19:32;;;;;;;5.15;3.35;;;13.60;99.90;;;;;;5091634;28;20059;-81
2022/11/14 07:21:58;;;;;;;4.32;3.40;;;13.90;99.90;;;;;;5091647;28;20024;-81
2022/11/14 07:24:23;;;;;;;7.22;3.50;;;13.70;99.90;;;;;;5091380;28;20119;-81
2022/11/14 07:26:49;;;;;;;6.05;3.40;;;13.70;99.90;;;;;;5091656;28;20446;-81
2022/11/14 07:29:15;;;;;;;5.07;3.22;;;13.70;99.90;;;;;;5093775;28;20024;-81
2022/11/14 07:31:40;;;;;;;4.20;3.08;;;13.70;99.90;;;;;;5095057;28;20034;-81
2022/11/14 07:34:07;;;;;;;4.20;2.75;;;13.70;99.90;;;;;;5095393;28;20464;-81
2022/11/14 07:36:33;;;;;;;5.28;3.13;;;13.70;99.90;;;;;;5094917;28;20401;-81
2022/11/14 07:38:59;;;;;;;5.88;3.88;;;13.80;99.90;;;;;;5094846;28;20020;-81
2022/11/14 07:41:24;;;;;;;8.13;3.00;;;13.80;99.90;;;;;;5095523;28;20028;-81
2022/11/14 07:43:50;;;;;;;5.10;3.60;;;13.80;99.90;;;;;;5094925;28;20053;-81
2022/11/14 07:46:17;;;;;;;5.90;3.95;;;13.80;99.90;;;;;;5095034;28;20380;-81
2022/11/14 07:48:43;;;;;;;4.53;3.80;;;13.90;99.90;;;;;;5094922;28;20480;-81
2022/11/14 07:51:15;;;;;;;6.20;3.58;;;14.20;99.90;;;;;;5094849;28;20024;-81
2022/11/14 07:53:41;;;;;;;5.15;3.90;;;14.10;99.90;;;;;;5094814;28;20030;-81
2022/11/14 07:56:08;;;;;;;4.32;3.80;;;14.20;99.90;;;;;;5094868;28;20435;-81
2022/11/14 07:58:35;;;;;;;3.17;2.10;;;14.20;99.90;;;;;;5094755;28;20400;-81
2022/11/14 08:01:02;;;;;;;5.05;3.65;;;14.10;99.90;;;;;;5093481;28;20035;-81
2022/11/14 08:03:28;;;;;;;9.55;4.03;;;14.20;99.90;;;;;;5094670;28;20034;-81
2022/11/14 08:06:10;;;;;;;6.80;3.53;;;14.30;99.90;;;;;;5094906;28;20392;-81
2022/11/14 08:08:36;;;;;;;5.50;4.15;;;14.30;99.90;;;;;;5093004;28;20030;-81
2022/11/14 08:11:02;;;;;;;4.90;3.40;;;14.40;99.90;;;;;;5093356;28;20115;-82
2022/11/14 08:13:29;;;;;;;6.18;3.35;;;14.40;99.90;;;;;;5094505;28;20085;-82
2022/11/14 08:15:55;;;;;;;5.13;3.50;;;14.80;99.90;;;;;;5093077;28;20027;-80
2022/11/14 08:18:20;;;;;;;5.97;3.50;;;14.80;99.90;;;;;;5092920;28;20032;-80
2022/11/14 08:20:46;;;;;;;3.17;2.38;;;14.90;99.90;;;;;;5094432;28;20028;-80
2022/11/14 08:23:13;;;;;;;5.15;3.80;;;15.10;99.90;;;;;;5093672;28;20556;-80
2022/11/14 08:25:39;;;;;;;5.80;3.85;;;15.40;99.90;;;;;;5073843;28;20110;-81
2022/11/14 08:28:04;;;;;;;6.20;4.03;;;15.90;99.90;;;;;;5081199;28;20530;-81
2022/11/14 08:30:30;;;;;;;4.47;3.70;;;18.90;99.90;;;;;;5087127;28;20027;-80
2022/11/14 08:32:56;;;;;;;3.50;3.17;;;17.80;99.90;;;;;;5102593;28;20034;-80
2022/11/14 08:35:22;;;;;;;4.13;3.03;;;17.00;99.90;;;;;;5111683;28;20093;-80
2022/11/14 08:37:47;;;;;;;6.22;3.20;;;17.70;99.90;;;;;;5095264;28;20039;-80
2022/11/14 08:40:13;;;;;;;3.75;2.78;;;19.10;99.90;;;;;;5093229;28;20099;-81
2022/11/14 08:42:39;;;;;;;4.35;3.75;;;16.70;99.90;;;;;;5093218;28;20392;-81
2022/11/14 08:45:05;;;;;;;3.28;2.97;;;16.40;99.90;;;;;;5074711;28;20059;-80
2022/11/14 08:47:31;;;;;;;4.60;2.55;;;16.40;99.90;;;;;;5093920;28;20024;-80
2022/11/14 08:49:56;;;;;;;3.92;3.35;;;18.90;99.90;;;;;;5093374;28;20437;-80
2022/11/14 08:52:22;;;;;;;5.85;3.70;;;18.30;99.90;;;;;;5093718;28;20026;-80
2022/11/14 08:54:47;;;;;;;6.80;3.60;;;18.40;99.90;;;;;;5093358;28;20093;-81
2022/11/14 08:57:14;;;;;;;3.22;2.92;;;20.20;99.90;;;;;;5093308;28;20107;-80
2022/11/14 08:59:42;;;;;;;3.08;2.63;;;20.40;99.90;;;;;;5092948;28;20523;-81
2022/11/14 09:02:15;;;;;;;7.40;3.72;;;18.40;99.90;;;;;;5093202;28;20020;-81
2022/11/14 09:04:41;;;;;;;3.85;3.30;;;18.20;99.90;;;;;;5109337;28;20032;-81
2022/11/14 09:07:07;;;;;;;3.38;2.38;;;19.20;99.90;;;;;;5104522;28;20024;-80
2022/11/14 09:09:32;;;;;;;5.05;3.15;;;17.30;99.90;;;;;;5094000;28;20470;-80
2022/11/14 09:11:58;;;;;;;7.22;3.42;;;17.40;99.90;;;;;;5093088;28;20051;-80
2022/11/14 09:14:24;;;;;;;3.78;2.13;;;17.00;99.90;;;;;;5093308;28;20024;-80
2022/11/14 09:16:49;;;;;;;4.65;3.45;;;16.60;99.90;;;;;;5093001;28;20028;-80
2022/11/14 09:19:15;;;;;;;4.05;2.72;;;16.20;99.90;;;;;;5093132;28;20480;-80
2022/11/14 09:21:41;;;;;;;5.38;3.55;;;16.30;99.90;;;;;;5092432;28;20053;-80
2022/11/14 09:24:07;;;;;;;4.13;1.95;;;16.10;99.90;;;;;;5092986;28;20042;-81
2022/11/14 09:26:33;;;;;;;3.42;3.08;;;15.80;99.90;;;;;;5092065;28;20146;-80
2022/11/14 09:28:59;;;;;;;4.28;3.40;;;16.00;99.90;;;;;;5093130;28;20060;-80
2022/11/14 09:31:25;;;;;;;5.93;3.53;;;15.90;99.90;;;;;;5094681;28;20024;-80
2022/11/14 09:33:51;;;;;;;4.65;2.05;;;15.80;99.90;;;;;;5093641;28;20040;-80
2022/11/14 09:36:17;;;;;;;5.25;3.60;;;15.80;99.90;;;;;;5092436;28;20082;-80
2022/11/14 09:38:43;;;;;;;6.03;2.85;;;15.80;99.90;;;;;;5089841;28;20032;-80
2022/11/14 09:41:23;;;;;;;6.45;3.55;;;15.70;99.90;;;;;;5091690;28;20035;-80
2022/11/14 09:44:04;;;;;;;2.95;2.65;;;15.40;99.90;;;;;;5091245;28;20059;-80
2022/11/14 09:46:45;;;;;;;4.15;2.60;;;15.60;99.90;;;;;;5089455;28;20109;-81
2022/11/14 09:49:34;;;;;;;4.60;3.63;;;15.60;99.90;;;;;;5091826;28;20040;-81
2022/11/14 09:52:22;;;;;;;3.25;2.47;;;15.70;99.90;;;;;;5092312;28;20073;-81
2022/11/14 09:54:55;;;;;;;4.07;3.10;;;15.50;99.90;;;;;;5079387;28;20051;-80
2022/11/14 09:57:21;;;;;;;4.20;3.40;;;15.70;99.90;;;;;;5087697;28;20024;-80
2022/11/14 09:59:48;;;;;;;6.22;3.55;;;15.70;99.90;;;;;;5091565;28;20024;-80
2022/11/14 10:02:17;;;;;;;8.50;3.38;;;15.70;99.90;;;;;;5092556;28;20061;-80
2022/11/14 10:04:49;;;;;;;4.43;3.15;;;15.60;99.90;;;;;;5092273;28;20479;-80
2022/11/14 10:07:42;;;;;;;3.47;2.85;;;15.70;99.90;;;;;;5092326;28;20024;-80
2022/11/14 10:10:30;;;;;;;4.05;3.42;;;16.00;99.90;;;;;;5091804;28;20028;-80
2022/11/14 10:12:55;;;;;;;3.08;2.25;;;16.00;99.90;;;;;;5092808;28;20042;-81
2022/11/14 10:15:29;;;;;;;5.05;2.90;;;16.10;99.90;;;;;;5091690;28;20024;-79
2022/11/14 10:18:20;;;;;;;4.10;3.10;;;16.20;99.90;;;;;;5091374;28;20047;-80
2022/11/14 10:20:53;;;;;;;3.15;2.15;;;16.60;99.90;;;;;;4990095;28;20233;-80
2022/11/14 10:23:40;;;;;;;4.57;3.78;;;16.30;99.90;;;;;;4990261;28;20038;-80
2022/11/14 10:26:16;;;;;;;3.85;2.03;;;16.50;99.90;;;;;;4990536;28;20129;-81
2022/11/14 10:29:22;;;;;;;4.22;2.53;;;16.20;99.90;;;;;;4989962;28;20450;-80
2022/11/14 10:32:17;;;;;;;4.28;3.17;;;16.20;99.90;;;;;;4913214;29;20086;-80
2022/11/14 10:35:10;;;;;;;6.88;2.50;;;16.90;99.90;;;;;;4913742;29;20051;-80
2022/11/14 10:38:15;;;;;;;5.05;2.50;;;16.40;99.90;;;;;;4913069;29;20048;-81
2022/11/14 10:40:44;;;;;;;5.65;3.25;;;16.30;99.90;;;;;;4894699;29;20059;-81
2022/11/14 10:43:28;;;;;;;3.55;3.08;;;16.60;99.90;;;;;;4894225;29;20044;-81
2022/11/14 10:46:22;;;;;;;3.58;2.47;;;16.70;99.90;;;;;;4894981;29;20044;-82
2022/11/14 10:48:51;;;;;;;3.60;2.60;;;16.70;99.90;;;;;;4888403;29;20044;-81
2022/11/14 10:51:29;;;;;;;3.30;2.05;;;16.70;99.90;;;;;;4894292;29;20131;-81
2022/11/14 10:54:08;;;;;;;4.85;3.00;;;16.90;99.90;;;;;;4894380;29;20040;-81
2022/11/14 10:56:33;;;;;;;6.55;2.58;;;17.00;99.90;;;;;;4899413;28;20041;-80
2022/11/14 10:58:59;;;;;;;4.68;2.97;;;17.00;99.90;;;;;;4971678;28;20159;-80
2022/11/14 11:01:52;;;;;;;2.75;2.33;;;16.80;99.90;;;;;;4954581;28;20471;-81
2022/11/14 11:04:21;;;;;;;4.78;3.08;;;17.00;99.90;;;;;;4984419;28;20450;-80
2022/11/14 11:06:52;;;;;;;3.53;2.42;;;17.10;99.90;;;;;;5034606;28;20127;-80
2022/11/14 11:12:22;;;;;;;4.88;2.47;;;17.10;99.90;;;;;;5052965;28;20079;-81
2022/11/14 11:15:09;;;;;;;5.28;2.40;;;17.20;99.90;;;;;;5052883;28;20389;-80
2022/11/14 11:17:35;;;;;;;3.15;2.30;;;17.10;99.90;;;;;;5067435;28;20040;-80
2022/11/14 11:20:40;;;;;;;3.00;2.05;;;17.20;99.90;;;;;;5094958;28;20551;-83
2022/11/14 11:23:08;;;;;;;3.88;2.72;;;17.00;99.90;;;;;;5013711;28;20038;-83
2022/11/14 11:25:34;;;;;;;3.60;2.60;;;17.30;99.90;;;;;;5012023;28;20034;-81
2022/11/14 11:28:18;;;;;;;3.28;2.47;;;17.10;99.90;;;;;;5002298;28;20387;-81
2022/11/14 11:31:06;;;;;;;4.10;2.63;;;17.00;99.90;;;;;;4994173;28;20507;-82
2022/11/14 11:33:32;;;;;;;4.20;2.15;;;17.00;99.90;;;;;;5007716;28;20030;-83
2022/11/14 11:36:04;;;;;;;4.35;2.80;;;16.90;99.90;;;;;;5012887;28;20188;-85
2022/11/14 11:38:31;;;;;;;2.58;2.28;;;17.00;99.90;;;;;;4994418;28;20058;-81
2022/11/14 11:41:04;;;;;;;4.40;3.15;;;16.80;99.90;;;;;;5008153;28;20030;-81
2022/11/14 11:43:39;;;;;;;4.88;2.75;;;17.00;99.90;;;;;;4997478;28;20546;-81
2022/11/14 11:46:15;;;;;;;3.08;2.67;;;16.80;99.90;;;;;;4993070;28;20117;-81
2022/11/14 11:48:42;;;;;;;5.60;2.78;;;16.90;99.90;;;;;;4994172;28;20442;-83
2022/11/14 11:51:16;;;;;;;3.50;2.80;;;17.20;99.90;;;;;;5010287;28;20068;-81
2022/11/14 11:53:49;;;;;;;3.35;2.33;;;17.00;99.90;;;;;;5012727;28;20549;-81
2022/11/14 11:56:23;;;;;;;5.30;2.65;;;16.90;99.90;;;;;;5024474;28;20107;-81
2022/11/14 11:58:52;;;;;;;4.13;2.60;;;16.90;99.90;;;;;;5074577;28;20025;-81
2022/11/14 12:01:18;;;;;;;3.70;2.42;;;17.00;99.90;;;;;;5074417;28;20125;-81
2022/11/14 12:03:53;;;;;;;4.97;2.80;;;16.70;99.90;;;;;;5074489;28;20465;-81
2022/11/14 12:06:24;;;;;;;3.08;2.78;;;16.70;99.90;;;;;;5074501;28;20024;-80
2022/11/14 12:09:12;;;;;;;3.17;2.50;;;16.70;99.90;;;;;;5074680;28;20029;-81
2022/11/14 12:11:42;;;;;;;3.80;3.00;;;16.60;99.90;;;;;;5074209;28;20021;-81
2022/11/14 12:14:26;;;;;;;3.47;2.92;;;16.60;99.90;;;;;;5056121;28;20404;-81
2022/11/14 12:17:03;;;;;;;2.55;2.30;;;16.50;99.90;;;;;;5076903;28;20459;-81
2022/11/14 12:19:51;;;;;;;4.90;2.50;;;16.30;99.90;;;;;;5094467;28;20039;-81
2022/11/14 12:22:19;;;;;;;3.03;2.60;;;16.20;99.90;;;;;;5094202;28;20481;-81
2022/11/14 12:25:08;;;;;;;3.95;2.47;;;16.40;99.90;;;;;;5094727;28;20384;-80
2022/11/14 12:28:03;;;;;;;4.03;2.95;;;16.20;99.90;;;;;;5012004;28;20131;-81
2022/11/14 12:30:30;;;;;;;2.47;2.03;;;16.10;99.90;;;;;;5011763;28;20034;-80
2022/11/14 12:33:06;;;;;;;5.07;3.15;;;16.10;99.90;;;;;;5012304;28;20045;-81
2022/11/14 12:35:35;;;;;;;4.03;2.65;;;16.20;99.90;;;;;;5012175;28;20073;-81
2022/11/14 12:38:03;;;;;;;2.90;2.42;;;16.10;99.90;;;;;;5011803;28;20058;-80
2022/11/14 12:40:33;;;;;;;3.00;2.70;;;16.10;99.90;;;;;;5011927;28;20481;-81
2022/11/14 12:43:01;;;;;;;3.72;2.95;;;16.00;99.90;;;;;;5011443;28;20034;-80
2022/11/14 12:45:41;;;;;;;5.68;3.08;;;16.20;99.90;;;;;;5011808;28;20574;-81
2022/11/14 12:48:28;;;;;;;4.03;3.28;;;16.00;99.90;;;;;;5011749;28;20026;-80
2022/11/14 12:50:55;;;;;;;7.53;3.30;;;16.10;99.90;;;;;;5011809;28;20410;-81
2022/11/14 12:53:35;;;;;;;3.97;3.03;;;16.00;99.90;;;;;;5011697;28;20045;-81
2022/11/14 12:56:29;;;;;;;3.40;2.88;;;16.10;99.90;;;;;;5011538;28;20470;-81
2022/11/14 12:59:15;;;;;;;4.75;2.95;;;16.10;99.90;;;;;;5011212;28;20045;-81
2022/11/14 13:01:52;;;;;;;5.38;3.78;;;16.10;99.90;;;;;;5011862;28;20030;-80